createdAt,value
2023-01-31T00:01:43.958Z,4.90
2023-01-31T00:04:15.442Z,5.03
2023-01-31T00:06:46.910Z,5.10
2023-01-31T00:09:18.836Z,5.00
2023-01-31T00:11:50.278Z,5.15
2023-01-31T00:14:21.692Z,4.68
2023-01-31T00:16:53.151Z,4.75
2023-01-31T00:19:24.567Z,4.97
2023-01-31T00:21:55.995Z,4.68
2023-01-31T00:24:27.445Z,4.97
2023-01-31T00:26:58.899Z,4.90
2023-01-31T00:29:30.359Z,5.60
2023-01-31T00:32:01.857Z,5.55
2023-01-31T00:34:33.425Z,5.47
2023-01-31T00:37:04.830Z,6.05
2023-01-31T00:39:36.376Z,5.68
2023-01-31T00:42:07.842Z,6.63
2023-01-31T00:44:39.246Z,6.32
2023-01-31T00:47:10.661Z,6.57
2023-01-31T00:49:42.054Z,6.93
2023-01-31T00:52:13.491Z,6.97
2023-01-31T00:54:44.938Z,6.80
2023-01-31T00:57:16.535Z,6.45
2023-01-31T00:59:47.979Z,7.07
2023-01-31T01:02:19.448Z,6.43
2023-01-31T01:04:50.937Z,6.45
2023-01-31T01:07:22.390Z,7.43
2023-01-31T01:09:53.831Z,7.13
2023-01-31T01:12:25.298Z,7.13
2023-01-31T01:14:56.699Z,6.95
2023-01-31T01:17:28.117Z,6.50
2023-01-31T01:19:59.594Z,6.43
2023-01-31T01:22:32.161Z,7.78
2023-01-31T01:25:04.384Z,6.53
2023-01-31T01:27:35.994Z,6.50
2023-01-31T01:30:08.292Z,6.37
2023-01-31T01:32:39.727Z,6.47
2023-01-31T01:35:11.229Z,7.28
2023-01-31T01:37:42.700Z,7.47
2023-01-31T01:40:14.168Z,7.00
2023-01-31T01:42:45.631Z,7.35
2023-01-31T01:45:19.310Z,7.05
2023-01-31T01:47:59.606Z,7.15
2023-01-31T01:50:42.566Z,8.10
2023-01-31T01:53:18.870Z,7.28
2023-01-31T01:55:52.813Z,7.73
2023-01-31T01:58:31.419Z,7.63
2023-01-31T02:01:05.641Z,7.68
2023-01-31T02:03:38.538Z,7.57
2023-01-31T02:06:10.210Z,7.78
2023-01-31T02:08:43.120Z,6.63
2023-01-31T02:11:24.977Z,7.32
2023-01-31T02:14:02.039Z,7.88
2023-01-31T02:16:33.555Z,7.95
2023-01-31T02:19:16.880Z,6.60
2023-01-31T02:21:54.121Z,7.22
2023-01-31T02:25:03.340Z,6.75
2023-01-31T02:28:14.455Z,7.82
2023-01-31T02:30:45.890Z,7.35
2023-01-31T02:33:22.876Z,8.15
2023-01-31T02:36:12.490Z,7.28
2023-01-31T02:38:49.973Z,7.13
2023-01-31T02:41:30.922Z,8.32
2023-01-31T02:44:32.101Z,8.05
2023-01-31T02:47:03.509Z,7.38
2023-01-31T02:49:46.586Z,8.10
2023-01-31T02:52:55.268Z,7.53
2023-01-31T02:55:35.097Z,8.48
2023-01-31T02:58:09.604Z,7.65
2023-01-31T03:00:45.357Z,8.45
2023-01-31T03:03:27.674Z,7.30
2023-01-31T03:06:17.582Z,7.70
2023-01-31T03:08:58.473Z,8.30
2023-01-31T03:11:46.195Z,8.20
2023-01-31T03:14:47.264Z,7.63
2023-01-31T03:17:26.261Z,7.82
2023-01-31T03:20:24.476Z,7.85
2023-01-31T03:23:03.778Z,7.38
2023-01-31T03:25:37.434Z,7.78
2023-01-31T03:28:14.449Z,7.43
2023-01-31T03:30:57.893Z,7.95
2023-01-31T03:33:34.936Z,7.93
2023-01-31T03:36:18.254Z,7.10
2023-01-31T03:38:58.897Z,7.67
2023-01-31T03:41:54.302Z,7.03
2023-01-31T03:44:31.583Z,7.72
2023-01-31T03:47:14.574Z,7.47
2023-01-31T03:49:48.717Z,6.68
2023-01-31T03:52:26.656Z,7.00
2023-01-31T03:55:15.127Z,7.55
2023-01-31T03:57:51.322Z,7.47
2023-01-31T04:00:24.720Z,7.22
2023-01-31T04:03:04.911Z,7.35
2023-01-31T04:05:37.086Z,7.15
2023-01-31T04:08:08.658Z,7.27
2023-01-31T04:10:41.103Z,6.85
2023-01-31T04:13:12.646Z,7.70
2023-01-31T04:15:44.160Z,6.50
2023-01-31T04:18:15.605Z,6.70
2023-01-31T04:20:47.054Z,6.70
2023-01-31T04:23:18.914Z,6.33
2023-01-31T04:25:50.447Z,6.20
2023-01-31T04:28:22.671Z,6.53
2023-01-31T04:30:55.381Z,6.18
2023-01-31T04:33:26.824Z,5.72
2023-01-31T04:35:58.370Z,6.35
2023-01-31T04:38:29.826Z,5.95
2023-01-31T04:41:01.243Z,5.20
2023-01-31T04:43:33.063Z,6.28
2023-01-31T04:46:04.949Z,6.00
2023-01-31T04:48:36.729Z,6.32
2023-01-31T04:51:08.610Z,5.60
2023-01-31T04:53:40.089Z,5.90
2023-01-31T04:56:11.533Z,5.93
2023-01-31T04:58:42.973Z,5.90
2023-01-31T05:01:14.635Z,6.43
2023-01-31T05:03:46.186Z,4.93
2023-01-31T05:06:17.927Z,5.32
2023-01-31T05:08:49.354Z,5.47
2023-01-31T05:11:21.068Z,5.60
2023-01-31T05:13:52.486Z,5.50
2023-01-31T05:16:23.971Z,5.75
2023-01-31T05:18:55.507Z,6.30
2023-01-31T05:21:27.016Z,6.03
2023-01-31T05:23:58.508Z,5.57
2023-01-31T05:26:30.047Z,5.28
2023-01-31T05:29:01.492Z,5.43
2023-01-31T05:31:33.072Z,5.90
2023-01-31T05:34:04.554Z,5.50
2023-01-31T05:36:36.147Z,5.85
2023-01-31T05:39:07.746Z,5.50
2023-01-31T05:41:39.178Z,5.53
2023-01-31T05:44:10.636Z,5.82
2023-01-31T05:46:42.516Z,5.78
2023-01-31T05:49:14.492Z,5.82
2023-01-31T05:51:45.990Z,6.28
2023-01-31T05:54:17.430Z,5.70
2023-01-31T05:56:48.988Z,5.90
2023-01-31T05:59:20.413Z,5.40
2023-01-31T06:01:51.983Z,6.40
2023-01-31T06:04:23.408Z,5.65
2023-01-31T06:06:54.887Z,5.32
2023-01-31T06:09:26.459Z,6.65
2023-01-31T06:11:58.522Z,5.57
2023-01-31T06:14:30.770Z,6.18
2023-01-31T06:17:02.296Z,4.93
2023-01-31T06:19:33.800Z,6.40
2023-01-31T06:22:05.549Z,6.40
2023-01-31T06:24:36.981Z,5.68
2023-01-31T06:27:08.374Z,5.57
2023-01-31T06:29:39.796Z,5.03
2023-01-31T06:32:11.215Z,5.03
2023-01-31T06:34:42.661Z,5.28
2023-01-31T06:37:14.108Z,5.57
2023-01-31T06:39:46.915Z,5.05
2023-01-31T06:42:18.332Z,5.72
2023-01-31T06:44:49.729Z,5.32
2023-01-31T06:47:21.158Z,5.30
2023-01-31T06:49:52.574Z,4.65
2023-01-31T06:52:24.187Z,5.03
2023-01-31T06:54:55.589Z,4.80
2023-01-31T06:57:27.032Z,4.88
2023-01-31T06:59:58.435Z,4.65
2023-01-31T07:02:30.366Z,5.67
2023-01-31T07:05:01.882Z,4.40
2023-01-31T07:07:33.428Z,4.72
2023-01-31T07:10:05.363Z,5.03
2023-01-31T07:12:36.936Z,4.40
2023-01-31T07:15:10.036Z,4.50
2023-01-31T07:17:41.457Z,4.57
2023-01-31T07:20:13.095Z,4.40
2023-01-31T07:22:44.520Z,5.10
2023-01-31T07:25:15.955Z,5.28
2023-01-31T07:27:47.366Z,4.57
2023-01-31T07:30:19.354Z,4.17
2023-01-31T07:32:51.261Z,4.03
2023-01-31T07:35:22.972Z,4.67
2023-01-31T07:37:54.836Z,4.22
2023-01-31T07:40:26.340Z,4.53
2023-01-31T07:42:59.388Z,4.53
2023-01-31T07:45:30.996Z,4.63
2023-01-31T07:48:02.538Z,5.20
2023-01-31T07:50:34.026Z,5.22
2023-01-31T07:53:05.446Z,6.20
2023-01-31T07:55:36.833Z,4.55
2023-01-31T07:58:08.223Z,4.57
2023-01-31T08:00:39.772Z,4.80
2023-01-31T08:03:24.612Z,4.88
2023-01-31T08:05:56.070Z,5.05
2023-01-31T08:08:27.509Z,5.00
2023-01-31T08:10:59.043Z,4.97
2023-01-31T08:13:31.768Z,5.00
2023-01-31T08:16:04.742Z,5.00
2023-01-31T08:18:37.441Z,5.25
2023-01-31T08:21:12.420Z,4.75
2023-01-31T08:23:44.962Z,5.57
2023-01-31T08:26:19.589Z,5.17
2023-01-31T08:28:52.058Z,5.03
2023-01-31T08:31:25.689Z,5.28
2023-01-31T08:33:57.299Z,5.40
2023-01-31T08:36:31.529Z,5.47
2023-01-31T08:39:04.183Z,5.50
2023-01-31T08:41:37.054Z,5.35
2023-01-31T08:44:08.486Z,5.03
2023-01-31T08:46:39.942Z,4.70
2023-01-31T08:49:11.379Z,5.32
2023-01-31T08:51:42.987Z,5.57
2023-01-31T08:54:14.491Z,5.60
2023-01-31T08:56:45.924Z,5.78
2023-01-31T08:59:17.385Z,5.80
2023-01-31T09:01:48.824Z,5.53
2023-01-31T09:04:20.343Z,5.53
2023-01-31T09:06:51.778Z,5.28
2023-01-31T09:09:23.202Z,5.90
2023-01-31T09:11:54.615Z,5.78
2023-01-31T09:14:26.011Z,5.75
2023-01-31T09:16:57.443Z,4.95
2023-01-31T09:19:28.972Z,5.13
2023-01-31T09:22:00.447Z,5.50
2023-01-31T09:24:32.227Z,5.47
2023-01-31T09:27:03.796Z,5.22
2023-01-31T09:29:35.195Z,5.05
2023-01-31T09:32:07.183Z,5.35
2023-01-31T09:34:38.590Z,5.10
2023-01-31T09:37:10.039Z,5.90
2023-01-31T09:39:41.566Z,5.50
2023-01-31T09:42:28.371Z,5.65
2023-01-31T09:45:07.732Z,5.63
2023-01-31T09:47:43.364Z,5.97
2023-01-31T09:50:27.177Z,5.68
2023-01-31T09:52:58.844Z,5.53
2023-01-31T09:55:47.645Z,6.20
2023-01-31T09:58:26.773Z,5.47
2023-01-31T10:01:36.428Z,5.90
2023-01-31T10:04:29.291Z,6.00
2023-01-31T10:07:12.779Z,5.93
2023-01-31T10:09:55.725Z,6.00
2023-01-31T10:12:40.872Z,5.73
2023-01-31T10:15:36.827Z,6.30
2023-01-31T10:18:13.971Z,5.50
2023-01-31T10:21:00.488Z,5.90
2023-01-31T10:24:03.893Z,5.75
2023-01-31T10:26:38.973Z,6.30
2023-01-31T10:29:30.838Z,5.75
2023-01-31T10:32:24.224Z,5.53
2023-01-31T10:35:12.002Z,5.30
2023-01-31T10:37:47.835Z,5.50
2023-01-31T10:40:25.838Z,5.30
2023-01-31T10:43:16.422Z,4.85
2023-01-31T10:45:47.898Z,5.53
2023-01-31T10:48:21.332Z,5.68
2023-01-31T10:51:32.349Z,5.63
2023-01-31T10:54:35.642Z,5.38
2023-01-31T10:57:07.184Z,5.65
2023-01-31T10:59:44.261Z,5.13
2023-01-31T11:02:25.317Z,5.95
2023-01-31T11:04:58.907Z,5.50
2023-01-31T11:07:31.594Z,6.50
2023-01-31T11:10:24.705Z,5.70
2023-01-31T11:13:02.206Z,5.97
2023-01-31T11:15:40.095Z,5.90
2023-01-31T11:18:29.068Z,5.80
2023-01-31T11:21:02.747Z,6.55
2023-01-31T11:23:36.184Z,6.22
2023-01-31T11:26:07.870Z,6.00
2023-01-31T11:28:41.038Z,5.55
2023-01-31T11:31:33.947Z,5.50
2023-01-31T11:34:18.015Z,6.38
2023-01-31T11:36:49.568Z,6.95
2023-01-31T11:39:33.487Z,6.43
2023-01-31T11:42:07.292Z,6.38
2023-01-31T11:44:56.482Z,5.97
2023-01-31T11:47:42.382Z,6.40
2023-01-31T11:50:21.649Z,5.93
2023-01-31T11:53:13.987Z,6.00
2023-01-31T11:55:47.706Z,5.88
2023-01-31T11:58:33.344Z,6.10
2023-01-31T12:01:14.373Z,5.53
2023-01-31T12:04:03.015Z,6.80
2023-01-31T12:06:36.944Z,7.25
2023-01-31T12:09:23.933Z,6.10
2023-01-31T12:12:01.964Z,6.50
2023-01-31T12:14:40.359Z,5.60
2023-01-31T12:17:17.573Z,5.70
2023-01-31T12:20:27.153Z,5.73
2023-01-31T12:23:07.068Z,6.45
2023-01-31T12:25:55.569Z,6.22
2023-01-31T12:28:45.911Z,6.97
2023-01-31T12:31:39.057Z,6.55
2023-01-31T12:34:28.737Z,6.05
2023-01-31T12:37:31.465Z,6.40
2023-01-31T12:40:36.894Z,6.38
2023-01-31T12:43:31.400Z,6.68
2023-01-31T12:46:25.334Z,5.68
2023-01-31T12:48:56.753Z,6.53
2023-01-31T12:51:42.949Z,5.90
2023-01-31T12:54:34.613Z,5.67
2023-01-31T12:57:38.564Z,5.43
2023-01-31T13:00:12.992Z,7.07
2023-01-31T13:03:09.173Z,5.70
2023-01-31T13:05:53.988Z,6.53
2023-01-31T13:08:34.963Z,6.10
2023-01-31T13:11:11.283Z,6.43
2023-01-31T13:13:54.661Z,6.55
2023-01-31T13:16:30.244Z,5.68
2023-01-31T13:19:06.291Z,5.30
2023-01-31T13:21:44.324Z,5.60
2023-01-31T13:24:20.670Z,5.80
2023-01-31T13:26:58.131Z,5.72
2023-01-31T13:29:38.912Z,5.45
2023-01-31T13:32:25.715Z,5.85
2023-01-31T13:35:05.173Z,6.10
2023-01-31T13:37:41.048Z,5.75
2023-01-31T13:40:19.665Z,5.93
2023-01-31T13:42:51.367Z,5.95
2023-01-31T13:45:29.892Z,6.10
2023-01-31T13:48:07.029Z,5.97
2023-01-31T13:50:44.802Z,5.82
2023-01-31T13:53:31.081Z,5.57
2023-01-31T13:56:04.397Z,5.83
2023-01-31T13:58:36.833Z,5.95
2023-01-31T14:01:13.625Z,5.47
2023-01-31T14:04:17.725Z,5.22
2023-01-31T14:07:01.126Z,6.18
2023-01-31T14:09:43.683Z,6.18
2023-01-31T14:12:15.048Z,5.55
2023-01-31T14:14:48.335Z,6.18
2023-01-31T14:17:28.994Z,5.45
2023-01-31T14:20:07.849Z,5.55
2023-01-31T14:22:39.412Z,5.18
2023-01-31T14:25:10.823Z,5.13
2023-01-31T14:27:51.275Z,4.43
2023-01-31T14:30:37.108Z,5.38
2023-01-31T14:33:18.452Z,6.00
2023-01-31T14:36:22.515Z,4.68
2023-01-31T14:39:12.437Z,5.05
2023-01-31T14:42:03.345Z,5.05
2023-01-31T14:44:47.638Z,5.03
2023-01-31T14:47:41.881Z,4.70
2023-01-31T14:50:34.775Z,5.45
2023-01-31T14:53:35.989Z,5.25
2023-01-31T14:56:51.211Z,5.70
2023-01-31T14:59:29.001Z,5.10
2023-01-31T15:02:18.254Z,5.78
2023-01-31T15:05:01.090Z,5.50
2023-01-31T15:07:33.243Z,5.70
2023-01-31T15:10:04.942Z,4.90
2023-01-31T15:12:57.922Z,4.82
2023-01-31T15:15:39.703Z,5.27
2023-01-31T15:18:19.887Z,5.47
2023-01-31T15:20:57.238Z,4.78
2023-01-31T15:23:32.412Z,5.20
2023-01-31T15:26:04.136Z,4.90
2023-01-31T15:28:41.883Z,4.67
2023-01-31T15:31:36.548Z,4.47
2023-01-31T15:34:16.843Z,4.72
2023-01-31T15:37:13.308Z,5.35
2023-01-31T15:39:54.313Z,4.57
2023-01-31T15:42:28.342Z,5.07
2023-01-31T15:45:24.521Z,4.85
2023-01-31T15:48:10.966Z,4.57
2023-01-31T15:50:57.056Z,5.30
2023-01-31T15:53:31.401Z,4.45
2023-01-31T15:56:08.421Z,4.93
2023-01-31T15:58:39.980Z,5.13
2023-01-31T16:01:15.418Z,4.80
2023-01-31T16:03:55.680Z,5.15
2023-01-31T16:06:34.558Z,5.32
2023-01-31T16:09:07.823Z,5.47
2023-01-31T16:11:39.353Z,5.43
2023-01-31T16:14:11.352Z,5.43
2023-01-31T16:16:45.840Z,5.07
2023-01-31T16:19:24.470Z,5.30
2023-01-31T16:21:58.129Z,5.15
2023-01-31T16:24:30.061Z,5.20
2023-01-31T16:27:08.838Z,5.10
2023-01-31T16:29:50.592Z,5.25
2023-01-31T16:32:37.728Z,5.63
2023-01-31T16:35:25.096Z,5.25
2023-01-31T16:38:03.042Z,5.28
2023-01-31T16:40:37.181Z,5.20
2023-01-31T16:43:29.679Z,5.45
2023-01-31T16:46:04.928Z,5.30
2023-01-31T16:48:38.204Z,5.28
2023-01-31T16:51:24.645Z,5.40
2023-01-31T16:54:21.044Z,6.20
2023-01-31T16:57:01.701Z,5.43
2023-01-31T16:59:33.205Z,4.93
2023-01-31T17:02:13.741Z,5.15
2023-01-31T17:04:47.179Z,5.50
2023-01-31T17:07:28.581Z,5.00
2023-01-31T17:10:04.015Z,5.68
2023-01-31T17:12:38.548Z,5.22
2023-01-31T17:15:15.835Z,5.57
2023-01-31T17:17:47.720Z,5.87
2023-01-31T17:20:21.243Z,5.75
2023-01-31T17:23:02.433Z,4.90
2023-01-31T17:25:35.515Z,5.80
2023-01-31T17:28:07.037Z,5.53
2023-01-31T17:30:40.950Z,5.13
2023-01-31T17:33:13.564Z,5.20
2023-01-31T17:35:46.342Z,5.45
2023-01-31T17:38:17.777Z,5.13
2023-01-31T17:40:49.425Z,5.82
2023-01-31T17:43:22.299Z,5.50
2023-01-31T17:45:53.760Z,5.55
2023-01-31T17:48:26.910Z,5.35
2023-01-31T17:50:58.692Z,5.00
2023-01-31T17:53:34.490Z,5.68
2023-01-31T17:56:08.879Z,4.78
2023-01-31T17:58:40.297Z,5.72
2023-01-31T18:01:12.427Z,5.93
2023-01-31T18:03:44.001Z,6.13
2023-01-31T18:06:15.463Z,5.65
2023-01-31T18:08:46.911Z,5.40
2023-01-31T18:11:18.421Z,5.50
2023-01-31T18:13:49.863Z,4.80
2023-01-31T18:16:21.372Z,5.88
2023-01-31T18:18:54.675Z,5.17
2023-01-31T18:21:26.143Z,5.13
2023-01-31T18:23:58.092Z,5.18
2023-01-31T18:26:29.975Z,5.72
2023-01-31T18:29:01.593Z,5.22
2023-01-31T18:31:33.173Z,5.68
2023-01-31T18:34:04.670Z,5.25
2023-01-31T18:36:36.123Z,5.65
2023-01-31T18:39:07.585Z,4.68
2023-01-31T18:41:39.059Z,5.55
2023-01-31T18:44:10.652Z,5.55
2023-01-31T18:46:42.269Z,5.63
2023-01-31T18:49:13.752Z,6.07
2023-01-31T18:51:45.210Z,5.38
2023-01-31T18:54:16.737Z,5.65
2023-01-31T18:56:48.219Z,5.35
2023-01-31T18:59:19.709Z,5.75
2023-01-31T19:01:53.997Z,5.85
2023-01-31T19:04:25.600Z,5.90
2023-01-31T19:06:57.106Z,6.47
2023-01-31T19:09:28.533Z,5.57
2023-01-31T19:11:59.956Z,6.00
2023-01-31T19:14:31.427Z,5.97
2023-01-31T19:17:02.908Z,6.45
2023-01-31T19:19:34.371Z,5.95
2023-01-31T19:22:05.781Z,5.15
2023-01-31T19:24:37.219Z,4.93
2023-01-31T19:27:08.691Z,5.80
2023-01-31T19:29:40.111Z,6.35
2023-01-31T19:32:11.616Z,5.47
2023-01-31T19:34:43.031Z,5.13
2023-01-31T19:37:14.466Z,5.63
2023-01-31T19:39:45.930Z,4.93
2023-01-31T19:42:17.405Z,6.00
2023-01-31T19:44:48.847Z,5.87
2023-01-31T19:47:20.294Z,5.88
2023-01-31T19:49:51.740Z,5.47
2023-01-31T19:52:23.275Z,6.03
2023-01-31T19:54:54.696Z,6.15
2023-01-31T19:57:26.186Z,5.68
2023-01-31T19:59:57.591Z,5.82
2023-01-31T20:02:29.145Z,5.18
2023-01-31T20:05:00.638Z,6.53
2023-01-31T20:07:32.084Z,5.97
2023-01-31T20:10:03.715Z,5.43
2023-01-31T20:12:35.162Z,5.85
2023-01-31T20:15:07.621Z,5.90
2023-01-31T20:17:39.075Z,5.95
2023-01-31T20:20:11.227Z,6.15
2023-01-31T20:22:42.623Z,5.88
2023-01-31T20:25:14.462Z,5.70
2023-01-31T20:27:45.882Z,5.68
2023-01-31T20:30:17.482Z,6.63
2023-01-31T20:32:52.019Z,6.20
2023-01-31T20:35:23.444Z,6.43
2023-01-31T20:37:54.847Z,5.82
2023-01-31T20:40:26.274Z,5.68
2023-01-31T20:42:57.834Z,5.60
2023-01-31T20:45:29.417Z,5.75
2023-01-31T20:48:01.055Z,5.75
2023-01-31T20:50:32.481Z,5.45
2023-01-31T20:53:04.343Z,6.32
2023-01-31T20:55:35.750Z,5.90
2023-01-31T20:58:07.155Z,6.13
2023-01-31T21:00:38.614Z,5.70
2023-01-31T21:03:10.026Z,5.53
2023-01-31T21:05:41.463Z,6.13
2023-01-31T21:08:13.045Z,5.15
2023-01-31T21:10:52.138Z,5.68
2023-01-31T21:13:24.923Z,5.20
2023-01-31T21:15:58.757Z,5.70
2023-01-31T21:18:34.615Z,6.28
2023-01-31T21:21:08.697Z,6.35
2023-01-31T21:23:41.172Z,6.07
2023-01-31T21:26:12.643Z,6.20
2023-01-31T21:28:44.144Z,6.07
2023-01-31T21:31:17.711Z,5.93
2023-01-31T21:33:51.568Z,6.00
2023-01-31T21:36:25.234Z,5.78
2023-01-31T21:38:56.887Z,6.15
2023-01-31T21:41:28.513Z,6.20
2023-01-31T21:44:00.519Z,6.63
2023-01-31T21:46:32.043Z,6.10
2023-01-31T21:49:04.133Z,6.03
2023-01-31T21:51:35.578Z,6.30
2023-01-31T21:54:07.228Z,5.97
2023-01-31T21:56:38.683Z,6.10
2023-01-31T21:59:10.292Z,6.03
2023-01-31T22:01:41.858Z,5.15
2023-01-31T22:04:13.282Z,5.65
2023-01-31T22:06:44.752Z,5.72
2023-01-31T22:09:16.800Z,6.10
2023-01-31T22:11:48.236Z,6.03
2023-01-31T22:14:20.248Z,5.63
2023-01-31T22:16:51.641Z,5.28
2023-01-31T22:19:23.104Z,5.23
2023-01-31T22:21:54.578Z,5.68
2023-01-31T22:24:26.101Z,6.20
2023-01-31T22:26:57.573Z,5.45
2023-01-31T22:29:29.002Z,5.83
2023-01-31T22:32:00.431Z,5.80
2023-01-31T22:34:31.844Z,5.88
2023-01-31T22:37:03.264Z,6.07
2023-01-31T22:39:34.646Z,5.95
2023-01-31T22:42:06.148Z,5.82
2023-01-31T22:44:37.581Z,6.05
2023-01-31T22:47:09.035Z,5.85
2023-01-31T22:49:40.464Z,5.70
2023-01-31T22:52:11.915Z,5.90
2023-01-31T22:54:43.365Z,6.30
2023-01-31T22:57:14.822Z,6.57
2023-01-31T22:59:46.260Z,6.53
2023-01-31T23:02:17.702Z,6.97
2023-01-31T23:04:49.176Z,6.18
2023-01-31T23:07:20.590Z,6.22
2023-01-31T23:09:51.984Z,6.72
2023-01-31T23:12:23.506Z,5.50
2023-01-31T23:14:54.958Z,6.30
2023-01-31T23:17:26.415Z,6.13
2023-01-31T23:19:57.853Z,7.03
2023-01-31T23:22:29.315Z,5.82
2023-01-31T23:25:00.745Z,6.13
2023-01-31T23:27:32.290Z,6.40
2023-01-31T23:30:06.337Z,6.68
2023-01-31T23:32:38.148Z,6.07
2023-01-31T23:35:10.319Z,6.35
2023-01-31T23:37:41.979Z,5.95
2023-01-31T23:40:13.754Z,6.43
2023-01-31T23:42:45.169Z,6.30
2023-01-31T23:45:16.735Z,6.40
2023-01-31T23:47:48.146Z,5.97
2023-01-31T23:50:19.846Z,6.82
2023-01-31T23:52:52.024Z,6.20
2023-01-31T23:55:23.430Z,5.90
2023-01-31T23:57:55.035Z,6.32
